Time;durP1;ratioP1;P1;durP2;ratioP2;P2;SDS_P1;SDS_P2;PMS_P1;PMS_P2;Temp;Humidity;BMP_temperature;BMP_pressure;BME280_temperature;BME280_humidity;BME280_pressure;Samples;Min_cycle;Max_cycle;Signal;HPM_P1;HPM_P2
2023/01/22 00:01:29;;;;;;;10.10;9.07;;;0.50;99.90;;;;;;5093932;28;20219;-83
2023/01/22 00:03:58;;;;;;;9.40;8.33;;;0.50;99.90;;;;;;5093906;28;20232;-82
2023/01/22 00:06:26;;;;;;;9.40;8.47;;;0.50;99.90;;;;;;5093691;28;20212;-82
2023/01/22 00:08:54;;;;;;;11.77;10.13;;;0.50;99.90;;;;;;5093601;28;20212;-82
2023/01/22 00:11:24;;;;;;;11.93;9.73;;;0.40;99.90;;;;;;5094397;28;20208;-82
2023/01/22 00:13:52;;;;;;;10.60;9.40;;;0.40;99.90;;;;;;5095860;28;20224;-83
2023/01/22 00:16:21;;;;;;;9.40;8.50;;;0.30;99.90;;;;;;5096132;28;20216;-82
2023/01/22 00:18:49;;;;;;;11.27;8.73;;;0.40;99.90;;;;;;5095647;28;20224;-82
2023/01/22 00:21:17;;;;;;;11.40;10.20;;;0.40;99.90;;;;;;5095497;28;20201;-82
2023/01/22 00:23:45;;;;;;;11.00;9.93;;;0.40;99.90;;;;;;5095821;28;20232;-82
2023/01/22 00:26:16;;;;;;;12.07;10.53;;;0.40;99.90;;;;;;5095667;28;20212;-81
2023/01/22 00:28:46;;;;;;;11.53;9.80;;;0.40;99.90;;;;;;5095583;28;20214;-82
2023/01/22 00:31:15;;;;;;;12.43;9.83;;;0.40;99.90;;;;;;5095690;28;20205;-81
2023/01/22 00:33:44;;;;;;;10.63;9.30;;;0.40;99.90;;;;;;5096166;28;20224;-82
2023/01/22 00:36:15;;;;;;;14.80;11.40;;;0.40;99.90;;;;;;5095428;28;20277;-82
2023/01/22 00:38:44;;;;;;;9.90;8.90;;;0.50;99.90;;;;;;5094958;28;20230;-82
2023/01/22 00:41:13;;;;;;;13.00;10.03;;;0.50;99.90;;;;;;5095511;28;20287;-81
2023/01/22 00:43:42;;;;;;;12.13;10.07;;;0.40;99.90;;;;;;5095427;28;20220;-82
2023/01/22 00:46:14;;;;;;;11.20;9.00;;;0.40;99.90;;;;;;5095370;28;20200;-82
2023/01/22 00:48:44;;;;;;;12.20;10.77;;;0.40;99.90;;;;;;5094997;28;20212;-82
2023/01/22 00:51:14;;;;;;;10.20;9.20;;;0.40;99.90;;;;;;5095158;28;20290;-81
2023/01/22 00:53:43;;;;;;;10.17;9.17;;;0.40;99.90;;;;;;5094749;28;20217;-82
2023/01/22 00:56:13;;;;;;;10.80;9.70;;;0.40;99.90;;;;;;5095032;28;20208;-82
2023/01/22 00:58:42;;;;;;;10.10;9.17;;;0.40;99.90;;;;;;5094226;28;20225;-82
2023/01/22 01:01:13;;;;;;;13.57;9.40;;;0.40;99.90;;;;;;5095005;28;20208;-82
2023/01/22 01:03:41;;;;;;;10.27;9.27;;;0.40;99.90;;;;;;5095040;28;20239;-82
2023/01/22 01:06:14;;;;;;;13.10;9.83;;;0.50;99.90;;;;;;5094813;28;20209;-82
2023/01/22 01:08:43;;;;;;;9.80;8.93;;;0.40;99.90;;;;;;5094162;28;20274;-82
2023/01/22 01:11:14;;;;;;;10.50;9.10;;;0.50;99.90;;;;;;5094680;28;20226;-82
2023/01/22 01:13:43;;;;;;;10.20;9.20;;;0.40;99.90;;;;;;5094891;28;20232;-82
2023/01/22 01:16:16;;;;;;;9.47;8.50;;;0.50;99.90;;;;;;5095061;28;20205;-83
2023/01/22 01:18:45;;;;;;;11.60;8.80;;;0.50;99.90;;;;;;5094474;28;20228;-83
2023/01/22 01:21:14;;;;;;;10.13;9.13;;;0.50;99.90;;;;;;5094365;28;20211;-82
2023/01/22 01:23:42;;;;;;;10.23;9.23;;;0.50;99.90;;;;;;5094306;28;20232;-82
2023/01/22 01:26:14;;;;;;;9.47;8.50;;;0.50;99.90;;;;;;5094574;28;20197;-82
2023/01/22 01:28:44;;;;;;;10.13;9.13;;;0.60;99.90;;;;;;5094231;28;20204;-83
2023/01/22 01:31:15;;;;;;;13.17;9.10;;;0.50;99.90;;;;;;5094457;28;20215;-82
2023/01/22 01:33:44;;;;;;;11.33;9.33;;;0.60;99.90;;;;;;5094461;28;20311;-83
2023/01/22 01:36:14;;;;;;;12.50;10.67;;;0.60;99.90;;;;;;5094433;28;20268;-82
2023/01/22 01:38:42;;;;;;;13.17;9.63;;;0.60;99.90;;;;;;5094227;28;20223;-83
2023/01/22 01:41:13;;;;;;;9.77;8.87;;;0.60;99.90;;;;;;5094064;28;20205;-83
2023/01/22 01:43:41;;;;;;;9.07;8.27;;;0.50;99.90;;;;;;5094162;28;20239;-82
2023/01/22 01:46:18;;;;;;;10.17;9.10;;;0.60;99.90;;;;;;5094029;28;20205;-82
2023/01/22 01:48:50;;;;;;;13.17;10.53;;;0.60;99.90;;;;;;5093997;28;20211;-82
2023/01/22 01:51:26;;;;;;;13.07;10.40;;;0.60;99.90;;;;;;5094044;28;20223;-82
2023/01/22 01:53:55;;;;;;;12.20;10.80;;;0.60;99.90;;;;;;5093785;28;20229;-82
2023/01/22 01:56:28;;;;;;;14.07;10.50;;;0.50;99.90;;;;;;5094031;28;20211;-82
2023/01/22 01:59:01;;;;;;;10.80;9.73;;;0.50;99.90;;;;;;5093734;28;20229;-82
2023/01/22 02:01:32;;;;;;;11.93;9.93;;;0.50;99.90;;;;;;5093895;28;20211;-82
2023/01/22 02:04:01;;;;;;;12.00;10.50;;;0.50;99.90;;;;;;5093807;28;20224;-82
2023/01/22 02:06:29;;;;;;;15.63;11.73;;;0.50;99.90;;;;;;5093793;28;20212;-82
2023/01/22 02:08:59;;;;;;;10.40;9.47;;;0.50;99.90;;;;;;5093728;28;20279;-82
2023/01/22 02:11:29;;;;;;;10.83;9.73;;;0.50;99.90;;;;;;5093861;28;20207;-82
2023/01/22 02:14:02;;;;;;;17.63;11.10;;;0.60;99.90;;;;;;5093639;28;20227;-82
2023/01/22 02:16:31;;;;;;;12.00;10.40;;;0.50;99.90;;;;;;5093726;28;20209;-82
2023/01/22 02:19:00;;;;;;;12.33;10.97;;;0.60;99.90;;;;;;5093548;28;20227;-82
2023/01/22 02:21:36;;;;;;;11.50;10.30;;;0.60;99.90;;;;;;5092578;28;20212;-83
2023/01/22 02:24:07;;;;;;;12.47;11.17;;;0.60;99.90;;;;;;5093882;28;20240;-83
2023/01/22 02:26:36;;;;;;;12.27;10.57;;;0.50;99.90;;;;;;5093740;28;20207;-82
2023/01/22 02:29:06;;;;;;;12.37;11.13;;;0.60;99.90;;;;;;5093221;28;20208;-82
2023/01/22 02:31:35;;;;;;;11.43;10.37;;;0.60;99.90;;;;;;5093356;28;20216;-82
2023/01/22 02:34:04;;;;;;;12.27;10.97;;;0.60;99.90;;;;;;5093128;28;20228;-83
2023/01/22 02:36:36;;;;;;;13.30;11.70;;;0.50;99.90;;;;;;5093327;28;20204;-82
2023/01/22 02:39:05;;;;;;;13.67;11.17;;;0.50;99.90;;;;;;5093292;28;20220;-83
2023/01/22 02:41:33;;;;;;;12.10;10.57;;;0.60;99.90;;;;;;5093352;28;20204;-82
2023/01/22 02:44:01;;;;;;;13.03;11.63;;;0.60;99.90;;;;;;5092912;28;20223;-82
2023/01/22 02:46:30;;;;;;;13.20;11.70;;;0.60;99.90;;;;;;5093057;28;20204;-82
2023/01/22 02:48:58;;;;;;;13.63;11.67;;;0.60;99.90;;;;;;5093307;28;20204;-82
2023/01/22 02:51:26;;;;;;;13.37;11.57;;;0.50;99.90;;;;;;5093053;28;20204;-82
2023/01/22 02:53:56;;;;;;;11.83;10.63;;;0.50;99.90;;;;;;5093117;28;20303;-82
2023/01/22 02:56:24;;;;;;;14.00;11.03;;;0.50;99.90;;;;;;5092902;28;20211;-82
2023/01/22 02:58:52;;;;;;;11.30;10.10;;;0.50;99.90;;;;;;5092015;28;20236;-82
2023/01/22 03:01:23;;;;;;;13.13;10.93;;;0.50;99.90;;;;;;5093030;28;20219;-82
2023/01/22 03:03:53;;;;;;;11.33;10.23;;;0.50;99.90;;;;;;5092899;28;20235;-83
2023/01/22 03:06:23;;;;;;;12.50;10.73;;;0.50;99.90;;;;;;5092905;28;20208;-82
2023/01/22 03:08:53;;;;;;;13.33;11.13;;;0.50;99.90;;;;;;5092576;28;20197;-82
2023/01/22 03:11:24;;;;;;;14.17;12.20;;;0.50;99.90;;;;;;5092999;28;20296;-83
2023/01/22 03:22:10;;;;;;;15.00;10.63;;;0.40;99.90;;;;;;5092707;28;20218;-82
2023/01/22 03:24:38;;;;;;;11.73;10.40;;;0.40;99.90;;;;;;5092705;28;20204;-82
2023/01/22 03:27:09;;;;;;;14.97;11.53;;;0.40;99.90;;;;;;5092478;28;20219;-82
2023/01/22 03:29:38;;;;;;;12.10;10.43;;;0.40;99.90;;;;;;5092614;28;20196;-83
2023/01/22 03:32:06;;;;;;;13.43;11.13;;;0.40;99.90;;;;;;5094648;28;20215;-82
2023/01/22 03:34:35;;;;;;;15.43;13.07;;;0.40;99.90;;;;;;5096760;28;20229;-82
2023/01/22 03:37:03;;;;;;;11.87;10.60;;;0.50;99.90;;;;;;5096378;28;20443;-82
2023/01/22 03:39:32;;;;;;;15.13;11.60;;;0.50;99.90;;;;;;5096314;28;20228;-82
2023/01/22 03:42:01;;;;;;;12.03;10.80;;;0.50;99.90;;;;;;5096343;28;20204;-82
2023/01/22 03:44:31;;;;;;;12.83;11.50;;;0.40;99.90;;;;;;5096789;28;20200;-82
2023/01/22 03:46:59;;;;;;;16.27;12.33;;;0.40;99.90;;;;;;5096371;28;20210;-82
2023/01/22 03:49:27;;;;;;;16.33;11.50;;;0.50;99.90;;;;;;5096424;28;20204;-82
2023/01/22 03:51:57;;;;;;;10.87;9.57;;;0.50;99.90;;;;;;5096231;28;20201;-82
2023/01/22 03:54:25;;;;;;;12.17;10.87;;;0.50;99.90;;;;;;5096199;28;20224;-82
2023/01/22 03:56:54;;;;;;;12.23;10.93;;;0.50;99.90;;;;;;5096122;28;20220;-82
2023/01/22 03:59:22;;;;;;;11.40;10.30;;;0.60;99.90;;;;;;5095990;28;20220;-82
2023/01/22 04:01:52;;;;;;;13.20;11.80;;;0.60;99.90;;;;;;5096103;28;20216;-81
2023/01/22 04:04:21;;;;;;;10.63;9.53;;;0.50;99.90;;;;;;5095858;28;20228;-81
2023/01/22 04:06:49;;;;;;;13.47;11.60;;;0.50;99.90;;;;;;5095724;28;20283;-82
2023/01/22 04:09:17;;;;;;;11.60;10.40;;;0.50;99.90;;;;;;5096222;28;20206;-82
2023/01/22 04:11:45;;;;;;;12.30;11.03;;;0.50;99.90;;;;;;5096122;28;20205;-82
2023/01/22 04:14:14;;;;;;;12.33;11.00;;;0.50;99.90;;;;;;5095870;28;20230;-81
2023/01/22 04:16:42;;;;;;;11.10;9.90;;;0.50;99.90;;;;;;5096156;28;20204;-82
2023/01/22 04:19:13;;;;;;;12.60;10.90;;;0.50;99.90;;;;;;5095483;28;20228;-82
2023/01/22 04:21:41;;;;;;;13.43;11.33;;;0.40;99.90;;;;;;5095685;28;20215;-81
2023/01/22 04:24:10;;;;;;;12.33;11.03;;;0.50;99.90;;;;;;5095631;28;20243;-82
2023/01/22 04:26:38;;;;;;;11.53;10.03;;;0.60;99.90;;;;;;5095543;28;20204;-81
2023/01/22 04:29:06;;;;;;;13.17;10.60;;;0.50;99.90;;;;;;5095752;28;20200;-82
2023/01/22 04:31:34;;;;;;;12.17;10.87;;;0.50;99.90;;;;;;5095503;28;20200;-82
2023/01/22 04:34:03;;;;;;;12.07;10.87;;;0.50;99.90;;;;;;5095634;28;20263;-81
2023/01/22 04:36:32;;;;;;;12.63;11.30;;;0.50;99.90;;;;;;5095551;28;20220;-82
2023/01/22 04:39:00;;;;;;;14.20;11.13;;;0.50;99.90;;;;;;5095401;28;20214;-82
2023/01/22 04:41:29;;;;;;;12.50;10.83;;;0.50;99.90;;;;;;5095402;28;20212;-82
2023/01/22 04:43:57;;;;;;;15.10;11.53;;;0.50;99.90;;;;;;5094500;28;20238;-82
2023/01/22 04:46:25;;;;;;;12.47;10.60;;;0.50;99.90;;;;;;5095286;28;20216;-82
2023/01/22 04:48:53;;;;;;;11.97;10.27;;;0.50;99.90;;;;;;5095268;28;20217;-82
2023/01/22 04:51:21;;;;;;;11.47;10.27;;;0.50;99.90;;;;;;5095267;28;20201;-82
2023/01/22 04:53:51;;;;;;;12.43;11.13;;;0.60;99.90;;;;;;5095284;28;20224;-83
2023/01/22 04:56:19;;;;;;;12.60;10.67;;;0.60;99.90;;;;;;5094977;28;20212;-82
2023/01/22 04:58:48;;;;;;;11.60;9.67;;;0.60;99.90;;;;;;5094788;28;20263;-82
2023/01/22 05:01:16;;;;;;;12.83;9.70;;;0.60;99.90;;;;;;5094875;28;20316;-82
2023/01/22 05:03:45;;;;;;;12.43;10.67;;;0.60;99.90;;;;;;5094947;28;20232;-83
2023/01/22 05:06:13;;;;;;;12.70;10.90;;;0.60;99.90;;;;;;5095141;28;20200;-82
2023/01/22 05:08:41;;;;;;;14.67;11.30;;;0.60;99.90;;;;;;5094517;28;20296;-82
2023/01/22 05:11:11;;;;;;;11.50;9.93;;;0.60;99.90;;;;;;5094939;28;20196;-82
2023/01/22 05:13:39;;;;;;;14.37;11.57;;;0.60;99.90;;;;;;5094655;28;20231;-82
2023/01/22 05:16:07;;;;;;;12.77;9.73;;;0.60;99.90;;;;;;5094857;28;20208;-82
2023/01/22 05:18:36;;;;;;;8.67;7.73;;;0.70;99.90;;;;;;5094609;28;20204;-82
2023/01/22 05:21:04;;;;;;;13.57;10.93;;;0.60;99.90;;;;;;5094254;28;20220;-82
2023/01/22 05:23:32;;;;;;;11.70;10.00;;;0.60;99.90;;;;;;5094321;28;20254;-82
2023/01/22 05:26:01;;;;;;;11.23;9.67;;;0.60;99.90;;;;;;5094535;28;20209;-82
2023/01/22 05:28:30;;;;;;;11.77;10.57;;;0.60;99.90;;;;;;5094372;28;20204;-82
2023/01/22 05:30:59;;;;;;;13.10;9.97;;;0.60;99.90;;;;;;5094539;28;20272;-82
2023/01/22 05:33:29;;;;;;;10.27;9.23;;;0.70;99.90;;;;;;5094922;28;20227;-82
2023/01/22 05:35:58;;;;;;;13.30;10.40;;;0.70;99.90;;;;;;5094668;28;20192;-82
2023/01/22 05:38:28;;;;;;;11.20;9.57;;;0.70;99.90;;;;;;5093793;28;20205;-81
2023/01/22 05:40:56;;;;;;;12.33;10.23;;;0.70;99.90;;;;;;5094008;28;20231;-82
2023/01/22 05:43:25;;;;;;;11.03;9.77;;;0.70;99.90;;;;;;5094539;28;20235;-82
2023/01/22 05:45:54;;;;;;;10.57;9.50;;;0.70;99.90;;;;;;5094329;28;20203;-82
2023/01/22 05:48:22;;;;;;;10.43;9.03;;;0.70;99.90;;;;;;5093738;28;20250;-83
2023/01/22 05:50:51;;;;;;;11.83;9.43;;;0.70;99.90;;;;;;5094192;28;20201;-83
2023/01/22 05:53:19;;;;;;;12.77;10.20;;;0.70;99.90;;;;;;5093644;28;20224;-83
2023/01/22 05:55:47;;;;;;;10.60;9.60;;;0.60;99.90;;;;;;5093107;28;20204;-83
2023/01/22 05:58:15;;;;;;;11.60;9.80;;;0.60;99.90;;;;;;5093867;28;20326;-83
2023/01/22 06:00:44;;;;;;;12.37;10.67;;;0.60;99.90;;;;;;5093615;28;20227;-83
2023/01/22 06:03:13;;;;;;;10.13;9.23;;;0.60;99.90;;;;;;5093804;28;20228;-83
2023/01/22 06:05:42;;;;;;;14.23;12.23;;;0.60;99.90;;;;;;5093900;28;20215;-83
2023/01/22 06:08:10;;;;;;;13.37;10.80;;;0.50;99.90;;;;;;5093433;28;20200;-83
2023/01/22 06:10:38;;;;;;;9.70;8.70;;;0.50;99.90;;;;;;5093665;28;20215;-83
2023/01/22 06:13:06;;;;;;;10.63;9.53;;;0.50;99.90;;;;;;5093645;28;20224;-83
2023/01/22 06:15:35;;;;;;;11.20;9.60;;;0.50;99.90;;;;;;5093727;28;20209;-83
2023/01/22 06:18:03;;;;;;;10.90;9.40;;;0.50;99.90;;;;;;5093512;28;20212;-83
2023/01/22 06:20:33;;;;;;;10.17;9.17;;;0.50;99.90;;;;;;5093060;28;20234;-83
2023/01/22 06:23:01;;;;;;;10.17;9.17;;;0.50;99.90;;;;;;5093341;28;20247;-83
2023/01/22 06:25:30;;;;;;;10.43;9.43;;;0.50;99.90;;;;;;5093670;28;20325;-83
2023/01/22 06:27:58;;;;;;;11.13;9.87;;;0.40;99.90;;;;;;5093272;28;20216;-82
2023/01/22 06:30:26;;;;;;;10.73;9.33;;;0.50;99.90;;;;;;5093606;28;20205;-83
2023/01/22 06:32:54;;;;;;;12.93;9.03;;;0.50;99.90;;;;;;5093220;28;20232;-83
2023/01/22 06:35:23;;;;;;;10.43;9.17;;;0.50;99.90;;;;;;5093065;28;20204;-83
2023/01/22 06:37:53;;;;;;;13.33;8.77;;;0.50;99.90;;;;;;5092990;28;20211;-83
2023/01/22 06:40:21;;;;;;;11.47;9.10;;;0.50;99.90;;;;;;5093495;28;20232;-82
2023/01/22 06:42:49;;;;;;;9.73;8.73;;;0.40;99.90;;;;;;5093182;28;20315;-82
2023/01/22 06:45:18;;;;;;;10.90;9.57;;;0.40;99.90;;;;;;5092988;28;20208;-82
2023/01/22 06:47:47;;;;;;;8.93;8.07;;;0.50;99.90;;;;;;5092779;28;20201;-82
2023/01/22 06:50:15;;;;;;;9.27;8.37;;;0.40;99.90;;;;;;5092857;28;20204;-82
2023/01/22 06:52:44;;;;;;;10.20;9.10;;;0.40;99.90;;;;;;5092872;28;20251;-82
2023/01/22 06:55:14;;;;;;;9.17;8.13;;;0.40;99.90;;;;;;5093006;28;20208;-82
2023/01/22 06:57:42;;;;;;;7.90;7.20;;;0.40;99.90;;;;;;5092784;28;20206;-82
2023/01/22 07:00:11;;;;;;;9.73;8.73;;;0.40;99.90;;;;;;5092580;28;20203;-82
2023/01/22 07:02:39;;;;;;;9.93;7.17;;;0.50;99.90;;;;;;5092625;28;20229;-82
2023/01/22 07:05:08;;;;;;;9.13;7.97;;;0.50;99.90;;;;;;5092878;28;20207;-82
2023/01/22 07:07:37;;;;;;;8.23;7.37;;;0.40;99.90;;;;;;5092564;28;20307;-83
2023/01/22 07:10:05;;;;;;;10.57;8.13;;;0.40;99.90;;;;;;5092779;28;20219;-83
2023/01/22 07:12:35;;;;;;;11.43;8.03;;;0.40;99.90;;;;;;5092632;28;20217;-82
2023/01/22 07:15:05;;;;;;;13.00;8.10;;;0.50;99.90;;;;;;5092963;28;20200;-81
2023/01/22 07:17:35;;;;;;;10.43;7.07;;;0.40;99.90;;;;;;5092956;28;20206;-82
2023/01/22 07:20:04;;;;;;;10.80;8.70;;;0.40;99.90;;;;;;5093481;28;20242;-82
2023/01/22 07:22:32;;;;;;;8.23;7.43;;;0.30;99.90;;;;;;5092072;28;20228;-81
2023/01/22 07:25:01;;;;;;;7.27;6.63;;;0.40;99.90;;;;;;5092656;28;20204;-81
2023/01/22 07:27:31;;;;;;;7.37;6.77;;;0.40;99.90;;;;;;5092482;28;20223;-81
2023/01/22 07:30:01;;;;;;;8.37;7.57;;;0.40;99.90;;;;;;5092461;28;20235;-81
2023/01/22 07:32:29;;;;;;;7.97;7.17;;;0.40;99.90;;;;;;5092799;28;20221;-82
2023/01/22 07:34:57;;;;;;;9.33;7.30;;;0.40;99.90;;;;;;5092874;28;20214;-81
2023/01/22 07:37:25;;;;;;;24.83;8.17;;;0.40;99.90;;;;;;5092786;28;20219;-82
2023/01/22 07:39:53;;;;;;;7.53;6.73;;;0.50;99.90;;;;;;5092225;28;20211;-81
2023/01/22 07:42:22;;;;;;;17.60;6.63;;;0.50;99.90;;;;;;5092341;28;20239;-82
2023/01/22 07:44:50;;;;;;;11.50;7.23;;;0.50;99.90;;;;;;5092705;28;20211;-82
2023/01/22 07:47:20;;;;;;;31.73;8.33;;;0.40;99.90;;;;;;5092604;28;20207;-82
2023/01/22 07:49:48;;;;;;;7.73;6.43;;;0.50;99.90;;;;;;5092579;28;20205;-81
2023/01/22 07:52:16;;;;;;;7.43;6.67;;;0.50;99.90;;;;;;5092101;28;20204;-82
2023/01/22 07:54:44;;;;;;;6.53;5.93;;;0.40;99.90;;;;;;5092160;28;20208;-81
2023/01/22 07:57:14;;;;;;;6.73;6.03;;;0.40;99.90;;;;;;5092216;28;20204;-81
2023/01/22 07:59:42;;;;;;;7.43;5.70;;;0.40;99.90;;;;;;5092228;28;20211;-81
2023/01/22 08:02:14;;;;;;;7.63;6.67;;;0.40;99.90;;;;;;5092475;28;20224;-80
2023/01/22 08:04:44;;;;;;;5.93;5.43;;;0.40;99.90;;;;;;5092011;28;20267;-80
2023/01/22 08:07:16;;;;;;;6.83;6.13;;;0.40;99.90;;;;;;5092175;28;20205;-80
2023/01/22 08:09:44;;;;;;;7.53;5.87;;;0.40;99.90;;;;;;5092630;28;20216;-81
2023/01/22 08:12:12;;;;;;;6.30;5.80;;;0.40;99.90;;;;;;5092340;28;20205;-81
2023/01/22 08:14:41;;;;;;;7.23;6.53;;;0.40;99.90;;;;;;5092262;28;20201;-82
2023/01/22 08:17:09;;;;;;;5.10;4.70;;;0.40;99.90;;;;;;5091900;28;20215;-81
2023/01/22 08:19:37;;;;;;;6.07;5.50;;;0.40;99.90;;;;;;5094604;28;20207;-81
2023/01/22 08:22:07;;;;;;;6.30;5.57;;;0.40;99.90;;;;;;5095641;28;20225;-81
2023/01/22 08:24:36;;;;;;;5.70;5.17;;;0.40;99.90;;;;;;5095693;28;20216;-81
2023/01/22 08:27:04;;;;;;;4.87;4.47;;;0.40;99.90;;;;;;5095462;28;20263;-81
2023/01/22 08:29:32;;;;;;;5.70;5.10;;;0.50;99.90;;;;;;5096148;28;20201;-81
2023/01/22 08:32:00;;;;;;;5.50;4.83;;;0.50;99.90;;;;;;5095713;28;20204;-82
2023/01/22 08:34:29;;;;;;;6.50;5.57;;;0.40;99.90;;;;;;5095679;28;20200;-82
2023/01/22 08:36:57;;;;;;;5.83;5.23;;;0.40;99.90;;;;;;5095540;28;20287;-82
2023/01/22 08:39:27;;;;;;;5.23;4.83;;;0.40;99.90;;;;;;5095384;28;20204;-81
2023/01/22 08:41:56;;;;;;;5.53;5.00;;;0.40;99.90;;;;;;5095455;28;20220;-81
2023/01/22 08:44:25;;;;;;;5.50;5.00;;;0.40;99.90;;;;;;5095190;28;20228;-81
2023/01/22 08:46:54;;;;;;;7.73;4.93;;;0.50;99.90;;;;;;5095296;28;20204;-81
2023/01/22 08:49:22;;;;;;;5.13;4.63;;;0.40;99.90;;;;;;5095346;28;20200;-81
2023/01/22 08:51:50;;;;;;;5.30;4.57;;;0.50;99.90;;;;;;5095194;28;20211;-81
2023/01/22 08:54:19;;;;;;;6.63;5.43;;;0.50;99.90;;;;;;5095292;28;20238;-81
2023/01/22 08:56:49;;;;;;;5.53;5.03;;;0.50;99.90;;;;;;5094662;28;20212;-81
2023/01/22 08:59:17;;;;;;;8.27;5.40;;;0.50;99.90;;;;;;5094987;28;20196;-80
2023/01/22 09:01:45;;;;;;;6.00;5.50;;;0.50;99.90;;;;;;5095125;28;20216;-80
2023/01/22 09:04:13;;;;;;;5.83;5.17;;;0.50;99.90;;;;;;5095110;28;20229;-81
2023/01/22 09:06:41;;;;;;;4.87;4.40;;;0.60;99.90;;;;;;5094652;28;20212;-80
2023/01/22 09:09:10;;;;;;;5.93;4.50;;;0.50;99.90;;;;;;5094747;28;20216;-81
2023/01/22 09:11:38;;;;;;;4.50;4.10;;;0.50;99.90;;;;;;5094800;28;20210;-81
2023/01/22 09:14:08;;;;;;;5.20;4.70;;;0.50;99.90;;;;;;5094796;28;20220;-81
2023/01/22 09:16:37;;;;;;;5.40;4.90;;;0.50;99.90;;;;;;5094966;28;20356;-82
2023/01/22 09:19:06;;;;;;;5.03;4.60;;;0.60;99.90;;;;;;5094349;28;20217;-81
2023/01/22 09:21:36;;;;;;;5.97;5.37;;;0.50;99.90;;;;;;5094200;28;20220;-81
2023/01/22 09:24:04;;;;;;;7.60;5.37;;;0.60;99.90;;;;;;5094334;28;20261;-80
2023/01/22 09:26:33;;;;;;;8.20;6.50;;;0.60;99.90;;;;;;5094560;28;20243;-80
2023/01/22 09:29:04;;;;;;;6.33;5.73;;;0.60;99.90;;;;;;5094120;28;20215;-81
2023/01/22 09:31:34;;;;;;;7.17;6.47;;;0.60;99.90;;;;;;5094482;28;20204;-81
2023/01/22 09:34:03;;;;;;;6.50;5.90;;;0.70;99.90;;;;;;5094375;28;20300;-80
2023/01/22 09:36:31;;;;;;;7.97;6.73;;;0.70;99.90;;;;;;5094486;28;20208;-79
2023/01/22 09:39:00;;;;;;;7.67;6.67;;;0.60;99.90;;;;;;5094416;28;20206;-80
2023/01/22 09:41:32;;;;;;;9.93;8.43;;;0.70;99.90;;;;;;5094087;28;20204;-80
2023/01/22 09:44:03;;;;;;;7.47;6.70;;;0.60;99.90;;;;;;5094226;28;20226;-81
2023/01/22 09:46:37;;;;;;;10.07;7.23;;;0.70;99.90;;;;;;5094146;28;20203;-80
2023/01/22 09:49:12;;;;;;;7.43;6.73;;;0.70;99.90;;;;;;5094074;28;20286;-80
2023/01/22 09:51:40;;;;;;;9.03;7.20;;;0.70;99.90;;;;;;5094118;28;20281;-80
2023/01/22 09:54:14;;;;;;;10.67;8.50;;;0.70;99.90;;;;;;5093714;28;20224;-81
2023/01/22 09:56:44;;;;;;;9.03;6.70;;;0.70;99.90;;;;;;5093462;28;20208;-81
2023/01/22 09:59:17;;;;;;;9.63;7.00;;;0.70;99.90;;;;;;5093542;28;20218;-81
2023/01/22 10:01:53;;;;;;;7.20;6.50;;;0.80;99.90;;;;;;5093791;28;20239;-81
2023/01/22 10:04:33;;;;;;;7.57;6.77;;;0.70;99.90;;;;;;5093687;28;20239;-82
2023/01/22 10:07:03;;;;;;;7.07;6.37;;;0.80;99.90;;;;;;5093915;28;20290;-82
2023/01/22 10:09:33;;;;;;;6.77;6.10;;;0.80;99.90;;;;;;5093777;28;20209;-82
2023/01/22 10:12:10;;;;;;;6.63;5.90;;;0.80;99.90;;;;;;5093664;28;20208;-82
2023/01/22 10:14:39;;;;;;;8.07;6.63;;;0.80;99.90;;;;;;5093595;28;20212;-82
2023/01/22 10:17:18;;;;;;;8.07;6.53;;;0.90;99.90;;;;;;5093341;28;20208;-82
2023/01/22 10:19:51;;;;;;;8.40;7.40;;;0.90;99.90;;;;;;5093538;28;20204;-81
2023/01/22 10:22:22;;;;;;;8.47;7.53;;;0.90;99.90;;;;;;5093510;28;20226;-81
2023/01/22 10:24:51;;;;;;;7.53;6.73;;;0.90;99.90;;;;;;5093546;28;20212;-82
2023/01/22 10:27:22;;;;;;;6.80;5.93;;;0.90;99.90;;;;;;5093034;28;20224;-81
2023/01/22 10:29:59;;;;;;;6.43;5.83;;;0.90;99.90;;;;;;5093194;28;20208;-81
2023/01/22 10:32:31;;;;;;;6.53;5.23;;;0.90;99.90;;;;;;5093704;28;20222;-81
2023/01/22 10:35:01;;;;;;;10.23;6.70;;;0.90;99.90;;;;;;5093364;28;20235;-81
2023/01/22 10:37:29;;;;;;;9.27;6.87;;;0.80;99.90;;;;;;5093103;28;20239;-81
2023/01/22 10:39:59;;;;;;;6.63;6.03;;;0.90;99.90;;;;;;5093206;28;20208;-81
2023/01/22 10:42:29;;;;;;;7.87;6.47;;;0.90;99.90;;;;;;5092488;28;20231;-81
2023/01/22 10:45:09;;;;;;;7.43;6.37;;;0.90;99.90;;;;;;5093381;28;20427;-81
2023/01/22 10:47:38;;;;;;;6.20;5.60;;;0.90;99.90;;;;;;5092765;28;20208;-81
2023/01/22 10:50:12;;;;;;;6.70;6.00;;;0.90;99.90;;;;;;5093282;28;20208;-82
2023/01/22 10:52:43;;;;;;;6.67;5.97;;;0.90;99.90;;;;;;5092865;28;20211;-82
2023/01/22 10:55:23;;;;;;;6.47;5.87;;;1.00;99.90;;;;;;5093118;28;20208;-82
2023/01/22 10:57:56;;;;;;;7.90;6.33;;;1.00;99.90;;;;;;5093026;28;20208;-82
2023/01/22 11:00:31;;;;;;;5.83;5.30;;;1.00;99.90;;;;;;5092940;28;20268;-82
2023/01/22 11:03:22;;;;;;;7.33;6.47;;;1.00;99.90;;;;;;5092903;28;20327;-82
2023/01/22 11:05:55;;;;;;;6.00;5.40;;;1.00;99.90;;;;;;5093060;28;20219;-82
2023/01/22 11:08:28;;;;;;;7.80;6.60;;;0.90;99.90;;;;;;5092916;28;20204;-83
2023/01/22 11:11:01;;;;;;;8.17;5.83;;;1.00;99.90;;;;;;5092799;28;20223;-83
2023/01/22 11:13:36;;;;;;;5.50;5.00;;;1.10;99.90;;;;;;5093061;28;20231;-83
2023/01/22 11:16:09;;;;;;;5.83;5.17;;;1.00;99.90;;;;;;5093021;28;20373;-82
2023/01/22 11:18:43;;;;;;;6.47;4.43;;;1.00;99.90;;;;;;5092645;28;20204;-82
2023/01/22 11:21:15;;;;;;;7.43;5.57;;;1.00;99.90;;;;;;5093011;28;20208;-82
2023/01/22 11:23:52;;;;;;;5.67;5.17;;;1.10;99.90;;;;;;5092599;28;20228;-82
2023/01/22 11:26:31;;;;;;;6.27;5.67;;;1.10;99.90;;;;;;5092794;28;20291;-81
2023/01/22 11:29:07;;;;;;;3.83;3.50;;;1.10;99.90;;;;;;5092487;28;20214;-82
2023/01/22 11:32:00;;;;;;;5.37;4.70;;;1.10;99.90;;;;;;5092658;28;20208;-82
2023/01/22 11:34:52;;;;;;;5.47;4.83;;;1.20;99.90;;;;;;5092384;28;20222;-82
2023/01/22 11:37:29;;;;;;;7.17;5.17;;;1.20;99.90;;;;;;5092404;28;20299;-82
2023/01/22 11:40:13;;;;;;;5.87;5.27;;;1.20;99.90;;;;;;5092540;28;20234;-82
2023/01/22 11:42:57;;;;;;;7.07;5.47;;;1.30;99.90;;;;;;5092590;28;20323;-82
2023/01/22 11:45:39;;;;;;;5.20;4.70;;;1.30;99.90;;;;;;5092659;28;20204;-82
2023/01/22 11:48:22;;;;;;;5.43;4.80;;;1.30;99.90;;;;;;5092171;28;20211;-82
2023/01/22 11:50:59;;;;;;;6.03;4.90;;;1.40;99.90;;;;;;5093044;28;20210;-83
2023/01/22 11:53:45;;;;;;;4.53;4.13;;;1.40;99.90;;;;;;5094801;28;20224;-82
2023/01/22 11:56:32;;;;;;;5.13;4.63;;;1.40;99.90;;;;;;5096432;28;20214;-82
2023/01/22 11:59:08;;;;;;;8.67;5.70;;;1.30;99.90;;;;;;5095937;28;20210;-82
2023/01/22 12:01:50;;;;;;;5.20;4.70;;;1.30;99.90;;;;;;5096240;28;20222;-83
2023/01/22 12:04:39;;;;;;;6.33;5.40;;;1.30;99.90;;;;;;5095814;28;20417;-81
2023/01/22 12:07:28;;;;;;;6.17;5.63;;;1.30;99.90;;;;;;5095829;28;20211;-81
2023/01/22 12:10:21;;;;;;;18.00;13.00;;;1.30;99.90;;;;;;5096396;28;20299;-81
2023/01/22 12:13:00;;;;;;;14.07;8.30;;;1.30;99.90;;;;;;5096009;28;20232;-81
2023/01/22 12:15:37;;;;;;;9.27;8.37;;;1.30;99.90;;;;;;5096367;28;20210;-81
2023/01/22 12:18:38;;;;;;;7.53;6.77;;;1.30;99.90;;;;;;5095969;28;20273;-82
2023/01/22 12:21:09;;;;;;;7.00;6.13;;;1.20;99.90;;;;;;5095766;28;20212;-82
2023/01/22 12:23:46;;;;;;;11.13;8.97;;;1.20;99.90;;;;;;5095736;28;20235;-82
2023/01/22 12:26:18;;;;;;;7.03;6.37;;;1.10;99.90;;;;;;5095570;28;20208;-81
2023/01/22 12:28:51;;;;;;;12.17;10.20;;;1.10;99.90;;;;;;5095656;28;20200;-82
2023/01/22 12:31:24;;;;;;;8.37;7.50;;;1.10;99.90;;;;;;5095845;28;20212;-82
2023/01/22 12:33:52;;;;;;;9.90;9.00;;;1.10;99.90;;;;;;5095669;28;20246;-81
2023/01/22 12:36:24;;;;;;;11.00;9.90;;;1.10;99.90;;;;;;5095737;28;20211;-81
2023/01/22 12:38:59;;;;;;;7.83;7.03;;;1.10;99.90;;;;;;5095386;28;20204;-82
2023/01/22 12:41:40;;;;;;;7.80;7.10;;;1.10;99.90;;;;;;5095614;28;20218;-81
2023/01/22 12:44:17;;;;;;;10.47;7.33;;;1.10;99.90;;;;;;5095283;28;20235;-83
2023/01/22 12:46:54;;;;;;;7.60;6.57;;;1.10;99.90;;;;;;5095199;28;20212;-82
2023/01/22 12:49:22;;;;;;;8.83;6.77;;;1.20;99.90;;;;;;5095436;28;20208;-82
2023/01/22 12:51:52;;;;;;;7.80;7.00;;;1.10;99.90;;;;;;5095626;28;20208;-83
2023/01/22 12:54:29;;;;;;;7.87;7.13;;;1.10;99.90;;;;;;5094950;28;20225;-82
2023/01/22 12:57:10;;;;;;;10.73;8.73;;;1.10;99.90;;;;;;5094875;28;20208;-82
2023/01/22 12:59:46;;;;;;;13.03;8.10;;;1.10;99.90;;;;;;5095010;28;20208;-82
2023/01/22 13:02:23;;;;;;;9.30;7.27;;;1.10;99.90;;;;;;5095015;28;20210;-82
2023/01/22 13:04:52;;;;;;;6.93;6.33;;;1.00;99.90;;;;;;5094300;28;20224;-82
2023/01/22 13:07:23;;;;;;;7.83;7.07;;;1.00;99.90;;;;;;5094704;28;20212;-81
2023/01/22 13:10:04;;;;;;;7.93;7.00;;;1.00;99.90;;;;;;5094996;28;20200;-82
2023/01/22 13:12:44;;;;;;;7.43;6.73;;;1.00;99.90;;;;;;5094853;28;20230;-82
2023/01/22 13:15:18;;;;;;;6.93;5.95;;;1.00;99.90;;;;;;5094947;28;20258;-83